Neptune Avra — 9HKH6 — position and weather

sailwx.info

Track history (hours):
 
Tides and Currents Weather Stations Pressure Air Temp Water Temp Dewpoint Dewpoint Depression Visibility Wind Speed Wind Dir Waves Ship Positions

Neptune Avra

Last reported at 2016-Aug-24 06:33 UTC. Time now 2016-Aug-25 06:09 UTC.
Position N 36°38' E 000°17'.

Length 155 m; draft 6.6 m.

Type: Cargo ship. MMSI: 248598000.

Date/timePositionNaut miles runAvg speedWind from/ knotsBaromVisibWave heightAir tempDewpointWater temp
2016-Aug-24 06:33N 36°38' E 000°17'3316.3
2016-Aug-24 04:32N 37°10' E 000°27'1616.3
2016-Aug-24 03:33N 37°25' E 000°32'3716.7
2016-Aug-24 01:19N 38°01' E 000°45'1316.7
2016-Aug-24 00:33N 38°13' E 000°49'1616.2
2016-Aug-23 23:33N 38°29' E 000°54'1716.0
2016-Aug-23 22:31N 38°45' E 000°60'1515.8
2016-Aug-23 21:33N 38°60' E 001°05'1615.9
2016-Aug-23 20:33N 39°15' E 001°12'3816.1
2016-Aug-23 18:10N 39°51' E 001°29'1017.0
2016-Aug-23 17:33N 40°00' E 001°34'1717.4
2016-Aug-23 16:34N 40°17' E 001°41'1717.2
2016-Aug-23 15:33N 40°33' E 001°49'1818.1
2016-Aug-23 14:33N 40°50' E 001°58'1717.1
2016-Aug-23 13:33N 41°06' E 002°06'1513.7
2016-Aug-23 12:27N 41°21' E 002°10'1 0.1
2016-Aug-23 01:28N 41°20' E 002°09'6 5.1
2016-Aug-23 00:12N 41°18' E 002°17'8 9.4
2016-Aug-22 23:23N 41°20' E 002°27'810.0
2016-Aug-22 22:33N 41°23' E 002°38'4 4.1
2016-Aug-22 21:33N 41°24' E 002°43'1 1.2
2016-Aug-22 20:33N 41°24' E 002°41'1 0.8
2016-Aug-22 19:27N 41°24' E 002°40'1 0.7
2016-Aug-22 18:32N 41°24' E 002°39'1 0.6
2016-Aug-22 17:33N 41°24' E 002°39'1 0.7
2016-Aug-22 16:33N 41°23' E 002°38'1 0.7
2016-Aug-22 14:32N 41°21' E 002°38'1 0.7
2016-Aug-22 13:30N 41°21' E 002°38'1 0.7
2016-Aug-22 12:33N 41°20' E 002°38'1 0.6
2016-Aug-22 11:33N 41°20' E 002°38'0 0.3
2016-Aug-22 10:04N 41°19' E 002°38'1 0.3
2016-Aug-22 08:15N 41°19' E 002°37'0 0.6
2016-Aug-22 07:32N 41°19' E 002°36'1 0.9
2016-Aug-22 06:33N 41°19' E 002°35'2 1.0
2016-Aug-22 04:32N 41°18' E 002°33'1 1.2
2016-Aug-22 03:33N 41°18' E 002°32'1 1.2
2016-Aug-22 02:23N 41°16' E 002°30'1 1.2
2016-Aug-22 01:26N 41°15' E 002°30'1 1.1
2016-Aug-22 00:32N 41°14' E 002°30'1 0.9
2016-Aug-21 23:31N 41°14' E 002°29'1 0.9
2016-Aug-21 22:33N 41°13' E 002°29'1 1.0
2016-Aug-21 21:33N 41°12' E 002°29'1 1.2
2016-Aug-21 20:33N 41°10' E 002°29'1 1.2
2016-Aug-21 19:33N 41°09' E 002°30'1 1.4
2016-Aug-21 18:33N 41°08' E 002°30'7 6.7
2016-Aug-21 17:32N 41°11' E 002°22'4 4.5
2016-Aug-21 16:33N 41°12' E 002°16'2 1.7
2016-Aug-21 15:33N 41°11' E 002°17'2 1.9
2016-Aug-21 14:34N 41°09' E 002°19'2 1.9
2016-Aug-21 13:32N 41°08' E 002°20'4 4.1
2016-Aug-21 12:33N 41°12' E 002°19'8 7.9
2016-Aug-21 11:34N 41°19' E 002°19'1 1.1
2016-Aug-21 10:33N 41°18' E 002°19'1 0.8
2016-Aug-21 09:34N 41°18' E 002°20'1 0.5
2016-Aug-21 08:34N 41°18' E 002°21'1 0.6
2016-Aug-21 07:33N 41°17' E 002°21'1 0.6
2016-Aug-21 06:33N 41°16' E 002°22'1 0.7
2016-Aug-21 05:33N 41°16' E 002°22'1 0.9
2016-Aug-21 04:33N 41°15' E 002°23'1 1.1
2016-Aug-21 03:33N 41°14' E 002°24'1 1.2
2016-Aug-21 02:30N 41°13' E 002°25'3 1.8
2016-Aug-21 00:33N 41°11' E 002°28'2 1.9
2016-Aug-20 23:33N 41°10' E 002°30'2 2.0
2016-Aug-20 22:32N 41°09' E 002°32'2 1.9
2016-Aug-20 21:33N 41°08' E 002°35'2 1.8
2016-Aug-20 20:33N 41°08' E 002°37'2 1.5
2016-Aug-20 19:32N 41°08' E 002°39'2 1.6
2016-Aug-20 18:31N 41°08' E 002°41'2 1.9
2016-Aug-20 17:33N 41°09' E 002°44'2 1.9
2016-Aug-20 16:33N 41°10' E 002°46'2 1.7
2016-Aug-20 15:33N 41°11' E 002°48'2 1.6
2016-Aug-20 14:33N 41°12' E 002°49'2 1.5
2016-Aug-20 13:25N 41°13' E 002°51'1 1.4
2016-Aug-20 12:32N 41°14' E 002°52'2 1.6
2016-Aug-20 11:28N 41°16' E 002°54'1 1.3
2016-Aug-20 10:33N 41°16' E 002°55'1 1.0
2016-Aug-20 09:33N 41°17' E 002°56'1 0.6
2016-Aug-20 08:32N 41°17' E 002°56'1 0.6
2016-Aug-20 07:23N 41°18' E 002°57'0 0.6
2016-Aug-20 06:32N 41°18' E 002°57'1 0.8
2016-Aug-20 05:33N 41°19' E 002°58'1 0.9
2016-Aug-20 04:33N 41°20' E 002°58'1 0.8
2016-Aug-20 03:33N 41°21' E 002°58'1 0.7
2016-Aug-20 02:33N 41°21' E 002°57'1 1.0
2016-Aug-20 01:30N 41°22' E 002°56'7 7.1
2016-Aug-20 00:33N 41°28' E 002°55'1514.5
2016-Aug-19 23:32N 41°42' E 003°04'1515.0
2016-Aug-19 22:32N 41°51' E 003°20'1514.9
2016-Aug-19 21:33N 42°01' E 003°34'1615.8
2016-Aug-19 20:33N 42°14' E 003°47'1616.1
2016-Aug-19 19:33N 42°26' E 004°01'1615.8
2016-Aug-19 18:33N 42°39' E 004°14'1615.8
2016-Aug-19 17:33N 42°51' E 004°27'1615.6
2016-Aug-19 16:33N 43°03' E 004°41'1515.4
2016-Aug-19 15:33N 43°15' E 004°54'9 8.9
2016-Aug-19 14:33N 43°24' E 004°52'1 0.1
2016-Aug-19 05:30N 43°24' E 004°51'4 4.7
2016-Aug-19 04:33N 43°23' E 004°57'1111.3
2016-Aug-19 03:34N 43°12' E 005°02'11412.6
2016-Aug-18 18:29N 41°43' E 003°26'1515.8
2016-Aug-18 17:33N 41°34' E 003°10'1615.8
2016-Aug-18 16:33N 41°22' E 002°57'1616.2
2016-Aug-18 15:33N 41°09' E 002°43'1616.2
2016-Aug-18 14:33N 40°57' E 002°28'1615.8
2016-Aug-18 13:33N 40°45' E 002°15'1616.1
2016-Aug-18 12:33N 40°33' E 002°01'1616.2
2016-Aug-18 11:33N 40°21' E 001°47'1616.2
2016-Aug-18 10:33N 40°08' E 001°34'1616.0
2016-Aug-18 09:33N 39°56' E 001°20'4715.7
2016-Aug-18 06:33N 39°15' E 000°50'5716.2
2016-Aug-18 03:03N 38°26' E 000°14'2717.0
2016-Aug-18 01:28N 38°04' W 000°05'3216.8
2016-Aug-17 23:33N 37°37' W 000°28'1816.6
2016-Aug-17 22:29N 37°24' W 000°44'3416.3
2016-Aug-17 20:22N 37°02' W 001°16'1616.4
2016-Aug-17 19:24N 36°51' W 001°31'1416.5
2016-Aug-17 18:33N 36°41' W 001°43'1716.6
2016-Aug-17 17:33N 36°31' W 001°60'1615.5
2016-Aug-17 16:30N 36°22' W 002°17'1616.3
2016-Aug-17 15:32N 36°21' W 002°36'1816.3
2016-Aug-17 14:27N 36°25' W 002°58'107 5.4
2016-Aug-16 18:31N 36°06' W 005°08'1616.8
2016-Aug-16 17:34N 35°58' W 005°25'2 0.2
2016-Aug-16 04:33N 35°60' W 005°25'18415.3
2016-Aug-15 16:33N 36°07' W 001°38'3716.5
2016-Aug-15 14:18N 36°05' W 000°52'1418.4
2016-Aug-15 13:31N 36°04' W 000°34'  
Track history (hours):
 
Tides and Currents Weather Stations Pressure Air Temp Water Temp Dewpoint Dewpoint Depression Visibility Wind Speed Wind Dir Waves Ship Positions

Neptune Avra

Last reported at 2016-Aug-24 06:33 UTC. Time now 2016-Aug-25 06:09 UTC.
Position N 36°38' E 000°17'.

Length 155 m; draft 6.6 m.

Type: Cargo ship. MMSI: 248598000.

Date/timePositionNaut miles runAvg speedWind from/ knotsBaromVisibWave heightAir tempDewpointWater temp
2016-Aug-24 06:33N 36°38' E 000°17'3316.3
2016-Aug-24 04:32N 37°10' E 000°27'1616.3
2016-Aug-24 03:33N 37°25' E 000°32'3716.7
2016-Aug-24 01:19N 38°01' E 000°45'1316.7
2016-Aug-24 00:33N 38°13' E 000°49'1616.2
2016-Aug-23 23:33N 38°29' E 000°54'1716.0
2016-Aug-23 22:31N 38°45' E 000°60'1515.8
2016-Aug-23 21:33N 38°60' E 001°05'1615.9
2016-Aug-23 20:33N 39°15' E 001°12'3816.1
2016-Aug-23 18:10N 39°51' E 001°29'1017.0
2016-Aug-23 17:33N 40°00' E 001°34'1717.4
2016-Aug-23 16:34N 40°17' E 001°41'1717.2
2016-Aug-23 15:33N 40°33' E 001°49'1818.1
2016-Aug-23 14:33N 40°50' E 001°58'1717.1
2016-Aug-23 13:33N 41°06' E 002°06'1513.7
2016-Aug-23 12:27N 41°21' E 002°10'1 0.1
2016-Aug-23 01:28N 41°20' E 002°09'6 5.1
2016-Aug-23 00:12N 41°18' E 002°17'8 9.4
2016-Aug-22 23:23N 41°20' E 002°27'810.0
2016-Aug-22 22:33N 41°23' E 002°38'4 4.1
2016-Aug-22 21:33N 41°24' E 002°43'1 1.2
2016-Aug-22 20:33N 41°24' E 002°41'1 0.8
2016-Aug-22 19:27N 41°24' E 002°40'1 0.7
2016-Aug-22 18:32N 41°24' E 002°39'1 0.6
2016-Aug-22 17:33N 41°24' E 002°39'1 0.7
2016-Aug-22 16:33N 41°23' E 002°38'1 0.7
2016-Aug-22 14:32N 41°21' E 002°38'1 0.7
2016-Aug-22 13:30N 41°21' E 002°38'1 0.7
2016-Aug-22 12:33N 41°20' E 002°38'1 0.6
2016-Aug-22 11:33N 41°20' E 002°38'0 0.3
2016-Aug-22 10:04N 41°19' E 002°38'1 0.3
2016-Aug-22 08:15N 41°19' E 002°37'0 0.6
2016-Aug-22 07:32N 41°19' E 002°36'1 0.9
2016-Aug-22 06:33N 41°19' E 002°35'2 1.0
2016-Aug-22 04:32N 41°18' E 002°33'1 1.2
2016-Aug-22 03:33N 41°18' E 002°32'1 1.2
2016-Aug-22 02:23N 41°16' E 002°30'1 1.2
2016-Aug-22 01:26N 41°15' E 002°30'1 1.1
2016-Aug-22 00:32N 41°14' E 002°30'1 0.9
2016-Aug-21 23:31N 41°14' E 002°29'1 0.9
2016-Aug-21 22:33N 41°13' E 002°29'1 1.0
2016-Aug-21 21:33N 41°12' E 002°29'1 1.2
2016-Aug-21 20:33N 41°10' E 002°29'1 1.2
2016-Aug-21 19:33N 41°09' E 002°30'1 1.4
2016-Aug-21 18:33N 41°08' E 002°30'7 6.7
2016-Aug-21 17:32N 41°11' E 002°22'4 4.5
2016-Aug-21 16:33N 41°12' E 002°16'2 1.7
2016-Aug-21 15:33N 41°11' E 002°17'2 1.9
2016-Aug-21 14:34N 41°09' E 002°19'2 1.9
2016-Aug-21 13:32N 41°08' E 002°20'4 4.1
2016-Aug-21 12:33N 41°12' E 002°19'8 7.9
2016-Aug-21 11:34N 41°19' E 002°19'1 1.1
2016-Aug-21 10:33N 41°18' E 002°19'1 0.8
2016-Aug-21 09:34N 41°18' E 002°20'1 0.5
2016-Aug-21 08:34N 41°18' E 002°21'1 0.6
2016-Aug-21 07:33N 41°17' E 002°21'1 0.6
2016-Aug-21 06:33N 41°16' E 002°22'1 0.7
2016-Aug-21 05:33N 41°16' E 002°22'1 0.9
2016-Aug-21 04:33N 41°15' E 002°23'1 1.1
2016-Aug-21 03:33N 41°14' E 002°24'1 1.2
2016-Aug-21 02:30N 41°13' E 002°25'3 1.8
2016-Aug-21 00:33N 41°11' E 002°28'2 1.9
2016-Aug-20 23:33N 41°10' E 002°30'2 2.0
2016-Aug-20 22:32N 41°09' E 002°32'2 1.9
2016-Aug-20 21:33N 41°08' E 002°35'2 1.8
2016-Aug-20 20:33N 41°08' E 002°37'2 1.5
2016-Aug-20 19:32N 41°08' E 002°39'2 1.6
2016-Aug-20 18:31N 41°08' E 002°41'2 1.9
2016-Aug-20 17:33N 41°09' E 002°44'2 1.9
2016-Aug-20 16:33N 41°10' E 002°46'2 1.7
2016-Aug-20 15:33N 41°11' E 002°48'2 1.6
2016-Aug-20 14:33N 41°12' E 002°49'2 1.5
2016-Aug-20 13:25N 41°13' E 002°51'1 1.4
2016-Aug-20 12:32N 41°14' E 002°52'2 1.6
2016-Aug-20 11:28N 41°16' E 002°54'1 1.3
2016-Aug-20 10:33N 41°16' E 002°55'1 1.0
2016-Aug-20 09:33N 41°17' E 002°56'1 0.6
2016-Aug-20 08:32N 41°17' E 002°56'1 0.6
2016-Aug-20 07:23N 41°18' E 002°57'0 0.6
2016-Aug-20 06:32N 41°18' E 002°57'1 0.8
2016-Aug-20 05:33N 41°19' E 002°58'1 0.9
2016-Aug-20 04:33N 41°20' E 002°58'1 0.8
2016-Aug-20 03:33N 41°21' E 002°58'1 0.7
2016-Aug-20 02:33N 41°21' E 002°57'1 1.0
2016-Aug-20 01:30N 41°22' E 002°56'7 7.1
2016-Aug-20 00:33N 41°28' E 002°55'1514.5
2016-Aug-19 23:32N 41°42' E 003°04'1515.0
2016-Aug-19 22:32N 41°51' E 003°20'1514.9
2016-Aug-19 21:33N 42°01' E 003°34'1615.8
2016-Aug-19 20:33N 42°14' E 003°47'1616.1
2016-Aug-19 19:33N 42°26' E 004°01'1615.8
2016-Aug-19 18:33N 42°39' E 004°14'1615.8
2016-Aug-19 17:33N 42°51' E 004°27'1615.6
2016-Aug-19 16:33N 43°03' E 004°41'1515.4
2016-Aug-19 15:33N 43°15' E 004°54'9 8.9
2016-Aug-19 14:33N 43°24' E 004°52'1 0.1
2016-Aug-19 05:30N 43°24' E 004°51'4 4.7
2016-Aug-19 04:33N 43°23' E 004°57'1111.3
2016-Aug-19 03:34N 43°12' E 005°02'11412.6
2016-Aug-18 18:29N 41°43' E 003°26'1515.8
2016-Aug-18 17:33N 41°34' E 003°10'1615.8
2016-Aug-18 16:33N 41°22' E 002°57'1616.2
2016-Aug-18 15:33N 41°09' E 002°43'1616.2
2016-Aug-18 14:33N 40°57' E 002°28'1615.8
2016-Aug-18 13:33N 40°45' E 002°15'1616.1
2016-Aug-18 12:33N 40°33' E 002°01'1616.2
2016-Aug-18 11:33N 40°21' E 001°47'1616.2
2016-Aug-18 10:33N 40°08' E 001°34'1616.0
2016-Aug-18 09:33N 39°56' E 001°20'4715.7
2016-Aug-18 06:33N 39°15' E 000°50'5716.2
2016-Aug-18 03:03N 38°26' E 000°14'2717.0
2016-Aug-18 01:28N 38°04' W 000°05'3216.8
2016-Aug-17 23:33N 37°37' W 000°28'1816.6
2016-Aug-17 22:29N 37°24' W 000°44'3416.3
2016-Aug-17 20:22N 37°02' W 001°16'1616.4
2016-Aug-17 19:24N 36°51' W 001°31'1416.5
2016-Aug-17 18:33N 36°41' W 001°43'1716.6
2016-Aug-17 17:33N 36°31' W 001°60'1615.5
2016-Aug-17 16:30N 36°22' W 002°17'1616.3
2016-Aug-17 15:32N 36°21' W 002°36'1816.3
2016-Aug-17 14:27N 36°25' W 002°58'107 5.4
2016-Aug-16 18:31N 36°06' W 005°08'1616.8
2016-Aug-16 17:34N 35°58' W 005°25'2 0.2
2016-Aug-16 04:33N 35°60' W 005°25'18415.3
2016-Aug-15 16:33N 36°07' W 001°38'3716.5
2016-Aug-15 14:18N 36°05' W 000°52'1418.4
2016-Aug-15 13:31N 36°04' W 000°34'  

Dump ship's entire track history